createdAt,value
2023-05-14T00:02:30.409Z,7.70
2023-05-14T00:05:22.470Z,7.40
2023-05-14T00:08:14.482Z,7.10
2023-05-14T00:11:08.903Z,7.40
2023-05-14T00:14:00.893Z,7.50
2023-05-14T00:16:52.939Z,7.80
2023-05-14T00:19:33.670Z,7.10
2023-05-14T00:22:25.728Z,6.80
2023-05-14T00:25:17.686Z,7.60
2023-05-14T00:28:09.658Z,7.10
2023-05-14T00:31:01.696Z,7.80
2023-05-14T00:33:53.829Z,7.10
2023-05-14T00:36:45.806Z,8.50
2023-05-14T00:39:37.875Z,7.50
2023-05-14T00:42:29.875Z,9.10
2023-05-14T00:45:22.201Z,7.60
2023-05-14T00:48:14.651Z,8.10
2023-05-14T00:51:07.271Z,8.00
2023-05-14T00:53:59.557Z,7.80
2023-05-14T00:56:51.788Z,7.30
2023-05-14T00:59:43.779Z,7.20
2023-05-14T01:02:35.843Z,7.70
2023-05-14T01:05:32.159Z,7.20
2023-05-14T01:08:47.674Z,7.70
2023-05-14T01:11:46.395Z,8.00
2023-05-14T01:14:46.249Z,7.70
2023-05-14T01:17:43.354Z,8.00
2023-05-14T01:20:35.971Z,8.00
2023-05-14T01:23:28.084Z,7.60
2023-05-14T01:26:20.844Z,8.10
2023-05-14T01:29:20.594Z,7.70
2023-05-14T01:32:14.441Z,7.20
2023-05-14T01:35:09.026Z,7.50
2023-05-14T01:38:02.770Z,8.70
2023-05-14T01:40:55.999Z,7.40
2023-05-14T01:43:48.516Z,7.80
2023-05-14T01:46:40.632Z,7.20
2023-05-14T01:49:32.721Z,7.50
2023-05-14T01:52:24.724Z,7.80
2023-05-14T01:55:18.319Z,8.20
2023-05-14T01:58:10.585Z,8.10
2023-05-14T02:01:02.621Z,8.20
2023-05-14T02:03:54.691Z,7.70
2023-05-14T02:06:46.695Z,8.10
2023-05-14T02:09:40.020Z,7.50
2023-05-14T02:12:32.047Z,7.70
2023-05-14T02:15:24.012Z,7.20
2023-05-14T02:18:16.056Z,8.50
2023-05-14T02:20:59.517Z,7.50
2023-05-14T02:23:51.600Z,8.50
2023-05-14T02:26:43.601Z,7.60
2023-05-14T02:29:35.583Z,7.80
2023-05-14T02:32:27.730Z,8.10
2023-05-14T02:35:20.123Z,8.40
2023-05-14T02:38:12.232Z,8.60
2023-05-14T02:40:46.599Z,7.60
2023-05-14T02:43:38.622Z,8.20
2023-05-14T02:46:31.521Z,7.20
2023-05-14T02:49:23.578Z,7.50
2023-05-14T02:52:15.695Z,7.90
2023-05-14T02:55:09.201Z,7.70
2023-05-14T02:58:01.177Z,7.40
2023-05-14T03:00:53.531Z,7.50
2023-05-14T03:03:26.024Z,7.80
2023-05-14T03:06:14.622Z,8.40
2023-05-14T03:09:07.117Z,8.10
2023-05-14T03:11:42.107Z,8.00
2023-05-14T03:14:34.242Z,8.60
2023-05-14T03:17:26.360Z,8.40
2023-05-14T03:20:18.416Z,7.30
2023-05-14T03:23:10.518Z,8.20
2023-05-14T03:26:03.750Z,7.70
2023-05-14T03:28:55.952Z,8.20
2023-05-14T03:31:48.081Z,7.60
2023-05-14T03:34:22.487Z,7.60
2023-05-14T03:37:14.491Z,8.00
2023-05-14T03:40:08.256Z,6.90
2023-05-14T03:43:00.255Z,7.60
2023-05-14T03:45:53.115Z,7.70
2023-05-14T03:48:45.171Z,8.20
2023-05-14T03:51:37.236Z,7.50
2023-05-14T03:54:22.555Z,7.60
2023-05-14T03:57:14.532Z,7.00
2023-05-14T03:59:56.489Z,8.00
2023-05-14T04:02:48.591Z,6.90
2023-05-14T04:05:29.410Z,7.00
2023-05-14T04:08:21.434Z,7.60
2023-05-14T04:11:13.387Z,7.60
2023-05-14T04:14:05.568Z,6.30
2023-05-14T04:16:58.961Z,7.20
2023-05-14T04:19:43.470Z,7.90
2023-05-14T04:22:35.558Z,7.80
2023-05-14T04:25:27.754Z,7.30
2023-05-14T04:28:19.813Z,7.20
2023-05-14T04:31:11.893Z,6.30
2023-05-14T04:34:03.885Z,7.60
2023-05-14T04:36:56.002Z,6.80
2023-05-14T04:39:48.038Z,7.20
2023-05-14T04:42:40.041Z,6.60
2023-05-14T04:45:34.332Z,8.10
2023-05-14T04:48:27.750Z,7.50
2023-05-14T04:51:19.665Z,8.10
2023-05-14T04:54:11.754Z,7.60
2023-05-14T04:57:03.781Z,7.10
2023-05-14T04:59:55.810Z,7.70
2023-05-14T05:02:39.389Z,7.30
2023-05-14T05:05:31.465Z,8.40
2023-05-14T05:08:23.641Z,7.60
2023-05-14T05:11:15.647Z,8.10
2023-05-14T05:14:07.726Z,7.40
2023-05-14T05:16:50.691Z,7.60
2023-05-14T05:19:44.276Z,7.10
2023-05-14T05:22:36.627Z,6.10
2023-05-14T05:25:28.868Z,7.00
2023-05-14T05:28:20.858Z,5.00
2023-05-14T05:31:12.993Z,3.10
2023-05-14T05:34:05.977Z,3.30
2023-05-14T05:36:57.927Z,4.00
2023-05-14T05:39:49.892Z,3.30
2023-05-14T05:42:41.854Z,3.30
2023-05-14T05:45:33.981Z,3.60
2023-05-14T05:48:25.882Z,3.80
2023-05-14T05:51:17.864Z,3.60
2023-05-14T05:54:09.814Z,2.90
2023-05-14T05:56:44.348Z,3.40
2023-05-14T05:59:26.321Z,2.60
2023-05-14T06:02:18.354Z,2.30
2023-05-14T06:05:11.808Z,3.20
2023-05-14T06:08:04.672Z,2.40
2023-05-14T06:10:49.884Z,2.00
2023-05-14T06:13:31.831Z,1.70
2023-05-14T06:16:23.903Z,2.40
2023-05-14T06:19:16.038Z,2.40
2023-05-14T06:22:08.410Z,2.10
2023-05-14T06:25:00.331Z,2.00
2023-05-14T06:27:52.285Z,1.80
2023-05-14T06:30:44.273Z,2.00
2023-05-14T06:33:36.270Z,2.20
2023-05-14T06:36:18.390Z,2.10
2023-05-14T06:39:10.883Z,2.20
2023-05-14T06:42:02.900Z,1.70
2023-05-14T06:44:54.935Z,1.50
2023-05-14T06:47:46.942Z,1.80
2023-05-14T06:50:27.793Z,1.30
2023-05-14T06:53:02.217Z,1.40
2023-05-14T06:55:54.335Z,1.60
2023-05-14T06:58:42.738Z,1.30
2023-05-14T07:01:34.740Z,1.40
2023-05-14T07:04:26.717Z,1.80
2023-05-14T07:07:21.083Z,1.70
2023-05-14T07:10:13.282Z,1.40
2023-05-14T07:13:03.248Z,2.00
2023-05-14T07:15:56.025Z,1.80
2023-05-14T07:18:31.138Z,1.80
2023-05-14T07:21:23.256Z,1.60
2023-05-14T07:24:15.302Z,1.50
2023-05-14T07:27:08.563Z,1.60
2023-05-14T07:30:00.556Z,1.40
2023-05-14T07:32:52.822Z,1.80
2023-05-14T07:35:44.832Z,1.50
2023-05-14T07:38:36.958Z,1.40
2023-05-14T07:41:26.233Z,1.30
2023-05-14T07:44:18.331Z,1.30
2023-05-14T07:47:10.740Z,1.40
2023-05-14T07:50:03.419Z,1.30
2023-05-14T07:52:55.475Z,1.20
2023-05-14T07:55:49.532Z,1.30
2023-05-14T07:58:42.138Z,1.50
2023-05-14T08:01:19.389Z,1.40
2023-05-14T08:04:11.865Z,2.00
2023-05-14T08:07:04.011Z,1.50
2023-05-14T08:09:56.017Z,1.80
2023-05-14T08:12:48.015Z,2.20
2023-05-14T08:15:39.976Z,1.80
2023-05-14T08:18:32.104Z,1.60
2023-05-14T08:21:24.116Z,1.70
2023-05-14T08:24:16.206Z,1.80
2023-05-14T08:27:08.380Z,1.70
2023-05-14T08:30:00.410Z,1.70
2023-05-14T08:32:52.851Z,1.70
2023-05-14T08:35:27.876Z,1.90
2023-05-14T08:37:59.840Z,2.30
2023-05-14T08:40:57.725Z,1.90
2023-05-14T08:43:58.064Z,2.10
2023-05-14T08:46:52.921Z,2.40
2023-05-14T08:49:47.468Z,2.10
2023-05-14T08:52:40.504Z,2.40
2023-05-14T08:55:33.377Z,2.10
2023-05-14T08:58:26.687Z,2.80
2023-05-14T09:01:19.921Z,1.90
2023-05-14T09:04:12.681Z,2.50
2023-05-14T09:06:49.831Z,2.20
2023-05-14T09:09:42.070Z,2.10
2023-05-14T09:12:34.104Z,2.30
2023-05-14T09:15:28.934Z,2.50
2023-05-14T09:18:21.352Z,2.10
2023-05-14T09:21:02.713Z,2.80
2023-05-14T09:23:59.656Z,2.70
2023-05-14T09:26:54.258Z,2.30
2023-05-14T09:29:46.246Z,2.40
2023-05-14T09:32:19.083Z,2.50
2023-05-14T09:35:17.595Z,2.90
2023-05-14T09:38:10.327Z,2.40
2023-05-14T09:41:02.544Z,1.90
2023-05-14T09:43:56.833Z,2.30
2023-05-14T09:46:50.000Z,2.20
2023-05-14T09:49:42.399Z,2.30
2023-05-14T09:52:34.382Z,2.60
2023-05-14T09:55:17.696Z,2.50
2023-05-14T09:58:09.816Z,2.50
2023-05-14T10:01:04.237Z,2.90
2023-05-14T10:03:58.620Z,2.60
2023-05-14T10:06:54.277Z,2.30
2023-05-14T10:09:47.481Z,2.10
2023-05-14T10:12:41.753Z,2.20
2023-05-14T10:15:38.705Z,1.90
2023-05-14T10:18:37.561Z,2.00
2023-05-14T10:21:35.015Z,2.00
2023-05-14T10:24:27.863Z,2.20
2023-05-14T10:27:09.327Z,2.20
2023-05-14T10:30:01.587Z,1.90
2023-05-14T10:33:14.375Z,2.60
2023-05-14T10:36:08.894Z,1.90
2023-05-14T10:39:05.080Z,2.80
2023-05-14T10:41:57.177Z,2.70
2023-05-14T10:44:55.975Z,2.70
2023-05-14T10:47:39.251Z,2.30
2023-05-14T10:50:32.349Z,2.20
2023-05-14T10:53:34.258Z,2.50
2023-05-14T10:56:16.246Z,2.30
2023-05-14T10:59:09.142Z,2.20
2023-05-14T11:02:01.120Z,2.40
2023-05-14T11:05:03.565Z,2.60
2023-05-14T11:07:40.171Z,2.40
2023-05-14T11:10:32.266Z,2.10
2023-05-14T11:13:24.351Z,2.30
2023-05-14T11:16:23.367Z,2.50
2023-05-14T11:19:07.008Z,2.40
2023-05-14T11:22:01.210Z,2.40
2023-05-14T11:24:53.509Z,1.90
2023-05-14T11:27:46.899Z,2.20
2023-05-14T11:30:39.048Z,2.40
2023-05-14T11:33:31.396Z,1.90
2023-05-14T11:36:23.512Z,2.10
2023-05-14T11:39:21.646Z,2.30
2023-05-14T11:42:16.737Z,2.10
2023-05-14T11:45:06.287Z,1.90
2023-05-14T11:47:58.406Z,2.50
2023-05-14T11:50:51.440Z,2.40
2023-05-14T11:53:43.516Z,2.10
2023-05-14T11:56:35.607Z,2.10
2023-05-14T11:59:28.927Z,1.90
2023-05-14T12:02:22.849Z,4.70
2023-05-14T12:05:16.494Z,1.90
2023-05-14T12:08:23.368Z,1.80
2023-05-14T12:11:15.339Z,1.70
2023-05-14T12:14:15.992Z,1.70
2023-05-14T12:17:15.030Z,1.50
2023-05-14T12:20:10.382Z,1.40
2023-05-14T12:23:02.378Z,1.70
2023-05-14T12:25:54.552Z,1.70
2023-05-14T12:28:50.133Z,1.20
2023-05-14T12:31:48.252Z,1.40
2023-05-14T12:34:40.714Z,1.50
2023-05-14T12:37:33.277Z,1.40
2023-05-14T12:40:25.629Z,1.50
2023-05-14T12:43:17.900Z,1.60
2023-05-14T12:46:09.951Z,1.80
2023-05-14T12:49:01.997Z,1.70
2023-05-14T12:52:07.789Z,1.40
2023-05-14T12:55:09.934Z,1.20
2023-05-14T12:57:42.030Z,1.50
2023-05-14T13:00:34.037Z,1.60
2023-05-14T13:03:26.448Z,1.40
2023-05-14T13:06:18.592Z,1.40
2023-05-14T13:09:10.597Z,1.20
2023-05-14T13:12:02.908Z,1.50
2023-05-14T13:14:44.497Z,1.30
2023-05-14T13:17:36.922Z,1.30
2023-05-14T13:20:30.959Z,1.30
2023-05-14T13:23:22.960Z,1.60
2023-05-14T13:26:15.339Z,1.50
2023-05-14T13:28:56.233Z,1.20
2023-05-14T13:31:48.250Z,1.50
2023-05-14T13:34:40.254Z,1.60
2023-05-14T13:37:32.185Z,1.40
2023-05-14T13:40:24.327Z,1.70
2023-05-14T13:43:16.973Z,1.40
2023-05-14T13:46:09.862Z,1.40
2023-05-14T13:49:02.113Z,1.40
2023-05-14T13:51:54.270Z,1.80
2023-05-14T13:54:46.276Z,1.60
2023-05-14T13:57:39.720Z,1.30
2023-05-14T14:00:16.147Z,1.20
2023-05-14T14:03:08.689Z,1.10
2023-05-14T14:06:00.968Z,1.60
2023-05-14T14:08:52.994Z,1.50
2023-05-14T14:11:45.024Z,1.30
2023-05-14T14:14:36.994Z,1.30
2023-05-14T14:17:28.998Z,1.50
2023-05-14T14:20:00.819Z,1.60
2023-05-14T14:22:52.842Z,1.60
2023-05-14T14:25:30.394Z,1.70
2023-05-14T14:28:22.402Z,1.50
2023-05-14T14:31:14.654Z,1.30
2023-05-14T14:34:06.673Z,1.50
2023-05-14T14:36:58.661Z,1.70
2023-05-14T14:39:32.785Z,1.50
2023-05-14T14:42:24.780Z,1.50
2023-05-14T14:45:06.661Z,1.60
2023-05-14T14:47:44.503Z,1.60
2023-05-14T14:50:36.603Z,1.50
2023-05-14T14:53:28.649Z,1.80
2023-05-14T14:56:21.226Z,1.70
2023-05-14T14:59:13.218Z,1.90
2023-05-14T15:02:05.591Z,1.40
2023-05-14T15:04:58.100Z,1.40
2023-05-14T15:07:33.272Z,2.10
2023-05-14T15:10:25.453Z,1.90
2023-05-14T15:13:17.624Z,1.40
2023-05-14T15:16:10.130Z,1.80
2023-05-14T15:19:02.161Z,2.10
2023-05-14T15:21:37.358Z,1.80
2023-05-14T15:24:29.398Z,1.30
2023-05-14T15:27:12.681Z,1.40
2023-05-14T15:30:06.279Z,1.50
2023-05-14T15:32:58.329Z,1.50
2023-05-14T15:35:50.281Z,1.60
2023-05-14T15:38:42.280Z,1.60
2023-05-14T15:41:34.423Z,1.30
2023-05-14T15:44:26.420Z,1.40
2023-05-14T15:47:18.288Z,1.40
2023-05-14T15:50:11.719Z,1.10
2023-05-14T15:53:04.047Z,1.10
2023-05-14T15:55:56.400Z,1.40
2023-05-14T15:58:48.449Z,1.30
2023-05-14T16:01:29.286Z,1.50
2023-05-14T16:04:21.317Z,1.40
2023-05-14T16:07:13.390Z,1.40
2023-05-14T16:10:06.005Z,1.50
2023-05-14T16:12:57.979Z,1.80
2023-05-14T16:15:50.042Z,1.40
2023-05-14T16:18:43.220Z,2.10
2023-05-14T16:21:35.372Z,2.80
2023-05-14T16:24:27.448Z,1.50
2023-05-14T16:27:19.534Z,1.30
2023-05-14T16:30:12.780Z,1.60
2023-05-14T16:32:50.200Z,1.70
2023-05-14T16:35:42.313Z,1.70
2023-05-14T16:38:35.538Z,1.40
2023-05-14T16:41:22.616Z,1.30
2023-05-14T16:44:14.659Z,1.80
2023-05-14T16:47:07.306Z,1.70
2023-05-14T16:49:59.275Z,1.70
2023-05-14T16:52:51.322Z,1.70
2023-05-14T16:55:43.337Z,1.40
2023-05-14T16:58:35.367Z,1.80
2023-05-14T17:01:27.398Z,2.00
2023-05-14T17:04:16.072Z,1.70
2023-05-14T17:07:08.474Z,1.70
2023-05-14T17:10:00.694Z,1.90
2023-05-14T17:12:35.760Z,2.00
2023-05-14T17:15:18.165Z,2.30
2023-05-14T17:18:11.929Z,1.70
2023-05-14T17:21:05.781Z,1.50
2023-05-14T17:23:58.094Z,1.80
2023-05-14T17:26:30.378Z,2.10
2023-05-14T17:29:22.344Z,1.40
2023-05-14T17:32:14.339Z,1.70
2023-05-14T17:35:07.110Z,1.40
2023-05-14T17:37:42.853Z,2.00
2023-05-14T17:40:34.997Z,1.80
2023-05-14T17:43:27.042Z,2.00
2023-05-14T17:46:19.136Z,2.20
2023-05-14T17:49:11.784Z,2.20
2023-05-14T17:52:04.467Z,2.40
2023-05-14T17:54:56.438Z,2.30
2023-05-14T17:57:48.563Z,2.10
2023-05-14T18:00:40.733Z,2.20
2023-05-14T18:03:32.828Z,1.90
2023-05-14T18:06:24.889Z,2.00
2023-05-14T18:09:16.842Z,1.50
2023-05-14T18:12:10.065Z,1.50
2023-05-14T18:15:02.060Z,1.70
2023-05-14T18:17:50.114Z,1.80
2023-05-14T18:20:42.183Z,1.50
2023-05-14T18:23:34.177Z,1.10
2023-05-14T18:26:26.637Z,1.70
2023-05-14T18:29:01.468Z,1.70
2023-05-14T18:36:15.351Z,1.60
2023-05-14T18:39:07.482Z,1.80
2023-05-14T18:41:59.564Z,1.90
2023-05-14T18:44:51.496Z,1.80
2023-05-14T18:47:43.607Z,2.10
2023-05-14T18:50:18.380Z,1.90
2023-05-14T18:53:10.500Z,2.00
2023-05-14T18:56:03.495Z,2.80
2023-05-14T18:58:56.240Z,2.30
2023-05-14T19:01:48.329Z,2.60
2023-05-14T19:04:51.165Z,3.70
2023-05-14T19:07:43.944Z,3.10
2023-05-14T19:10:35.974Z,3.50
2023-05-14T19:13:30.158Z,3.70
2023-05-14T19:16:22.318Z,3.90
2023-05-14T19:19:14.946Z,4.10
2023-05-14T19:22:07.238Z,4.20
2023-05-14T19:24:59.312Z,4.40
2023-05-14T19:27:53.570Z,4.10
2023-05-14T19:30:45.595Z,4.60
2023-05-14T19:33:37.535Z,4.20
2023-05-14T19:36:31.472Z,4.30
2023-05-14T19:39:08.957Z,4.70
2023-05-14T19:42:00.987Z,4.00
2023-05-14T19:44:53.046Z,4.00
2023-05-14T19:47:45.094Z,3.70
2023-05-14T19:50:37.794Z,3.60
2023-05-14T19:53:30.599Z,3.60
2023-05-14T19:56:05.642Z,3.60
2023-05-14T19:58:57.680Z,4.00
2023-05-14T20:01:49.725Z,4.00
2023-05-14T20:04:26.049Z,3.60
2023-05-14T20:07:03.780Z,3.80
2023-05-14T20:09:55.782Z,3.80
2023-05-14T20:12:47.732Z,3.70
2023-05-14T20:15:22.346Z,4.10
2023-05-14T20:18:14.487Z,3.90
2023-05-14T20:20:58.130Z,4.00
2023-05-14T20:23:50.141Z,4.60
2023-05-14T20:26:42.165Z,5.00
2023-05-14T20:29:22.907Z,5.50
2023-05-14T20:32:15.543Z,5.90
2023-05-14T20:35:08.945Z,4.60
2023-05-14T20:38:02.094Z,4.50
2023-05-14T20:40:36.972Z,4.90
2023-05-14T20:43:30.263Z,5.20
2023-05-14T20:46:22.397Z,5.30
2023-05-14T20:49:14.399Z,5.00
2023-05-14T20:52:07.021Z,5.60
2023-05-14T20:55:00.854Z,5.20
2023-05-14T20:57:53.916Z,4.80
2023-05-14T21:00:45.912Z,5.30
2023-05-14T21:03:38.136Z,4.70
2023-05-14T21:06:30.175Z,4.90
2023-05-14T21:09:23.678Z,4.10
2023-05-14T21:12:15.790Z,4.30
2023-05-14T21:15:09.338Z,4.20
2023-05-14T21:18:02.612Z,4.20
2023-05-14T21:20:54.601Z,4.40
2023-05-14T21:23:46.619Z,4.70
2023-05-14T21:26:40.353Z,4.90
2023-05-14T21:29:32.382Z,4.90
2023-05-14T21:32:24.415Z,5.70
2023-05-14T21:35:16.784Z,5.90
2023-05-14T21:38:09.838Z,7.40
2023-05-14T21:40:44.767Z,6.80
2023-05-14T21:43:26.919Z,5.90
2023-05-14T21:46:19.129Z,6.40
2023-05-14T21:48:54.046Z,5.80
2023-05-14T21:51:46.673Z,5.10
2023-05-14T21:54:38.731Z,4.90
2023-05-14T21:57:34.077Z,4.70
2023-05-14T22:00:26.600Z,4.80
2023-05-14T22:03:18.706Z,4.90
2023-05-14T22:06:10.838Z,4.40
2023-05-14T22:09:03.036Z,4.50
2023-05-14T22:11:55.533Z,4.00
2023-05-14T22:14:47.699Z,4.40
2023-05-14T22:17:39.934Z,3.60
2023-05-14T22:20:31.958Z,3.70
2023-05-14T22:23:23.963Z,4.00
2023-05-14T22:26:15.977Z,4.10
2023-05-14T22:29:07.971Z,3.60
2023-05-14T22:31:59.995Z,3.00
2023-05-14T22:34:52.542Z,2.90
2023-05-14T22:37:44.572Z,3.20
2023-05-14T22:40:36.522Z,3.30
2023-05-14T22:43:28.470Z,2.90
2023-05-14T22:46:21.097Z,3.00
2023-05-14T22:49:13.340Z,3.10
2023-05-14T22:52:05.798Z,2.80
2023-05-14T22:54:50.830Z,2.70
2023-05-14T22:57:42.939Z,2.80
2023-05-14T23:00:35.047Z,2.50
2023-05-14T23:03:09.612Z,2.70
2023-05-14T23:06:01.598Z,2.60
2023-05-14T23:08:53.852Z,2.70
2023-05-14T23:11:46.094Z,2.30
2023-05-14T23:14:38.084Z,2.20
2023-05-14T23:17:30.239Z,2.60
2023-05-14T23:20:22.337Z,2.00
2023-05-14T23:23:14.276Z,2.00
2023-05-14T23:26:06.735Z,1.90
2023-05-14T23:28:58.690Z,2.00
2023-05-14T23:31:50.707Z,2.00
2023-05-14T23:34:42.819Z,1.90
2023-05-14T23:37:36.796Z,1.80
2023-05-14T23:40:28.755Z,1.80
2023-05-14T23:43:20.747Z,2.20
2023-05-14T23:46:13.083Z,1.80
2023-05-14T23:49:05.218Z,1.70
2023-05-14T23:51:57.592Z,2.40
2023-05-14T23:54:49.556Z,2.10
2023-05-14T23:57:42.022Z,2.00
